Time;durP1;ratioP1;P1;durP2;ratioP2;P2;SDS_P1;SDS_P2;PMS_P1;PMS_P2;Temp;Humidity;BMP_temperature;BMP_pressure;BME280_temperature;BME280_humidity;BME280_pressure;Samples;Min_cycle;Max_cycle;Signal;HPM_P1;HPM_P2
2023/11/23 00:00:42;;;;;;;13.57;7.43;;;;;;;-1.97;100.00;98392.56;5038994;28;20049;-63
2023/11/23 00:03:09;;;;;;;13.35;7.75;;;;;;;-2.05;100.00;98395.09;5034550;28;20148;-62
2023/11/23 00:05:36;;;;;;;13.35;7.68;;;;;;;-2.04;100.00;98401.25;5044205;28;20736;-62
2023/11/23 00:08:03;;;;;;;14.10;7.80;;;;;;;-2.10;100.00;98392.06;5039479;28;20554;-62
2023/11/23 00:10:29;;;;;;;13.73;7.90;;;;;;;-2.33;100.00;98391.56;5040395;28;20544;-63
2023/11/23 00:12:56;;;;;;;13.35;7.28;;;;;;;-2.27;100.00;98393.63;5033921;28;20128;-62
2023/11/23 00:15:22;;;;;;;12.27;6.95;;;;;;;-2.17;100.00;98377.69;5041868;28;20044;-63
2023/11/23 00:17:49;;;;;;;11.15;7.38;;;;;;;-2.13;100.00;98382.53;5037480;28;20489;-63
2023/11/23 00:20:16;;;;;;;11.98;7.10;;;;;;;-2.05;100.00;98384.50;5030566;28;20029;-62
2023/11/23 00:22:42;;;;;;;13.88;7.43;;;;;;;-2.08;100.00;98382.13;5036760;28;20688;-62
2023/11/23 00:25:11;;;;;;;15.65;8.18;;;;;;;-2.16;100.00;98393.47;5039689;28;20119;-63
2023/11/23 00:27:39;;;;;;;13.60;7.82;;;;;;;-2.13;100.00;98400.31;5041619;28;20500;-63
2023/11/23 00:30:06;;;;;;;13.45;8.27;;;;;;;-2.17;100.00;98390.97;5039381;28;20037;-62
2023/11/23 00:32:34;;;;;;;15.50;7.90;;;;;;;-2.11;100.00;98398.31;5044155;28;20066;-63
2023/11/23 00:35:03;;;;;;;15.27;7.20;;;;;;;-2.10;100.00;98392.06;5046029;28;20056;-62
2023/11/23 00:37:31;;;;;;;15.77;7.95;;;;;;;-1.98;100.00;98398.00;5043049;28;20040;-63
2023/11/23 00:39:58;;;;;;;12.80;7.38;;;;;;;-1.94;100.00;98387.94;5038493;28;20510;-62
2023/11/23 00:42:24;;;;;;;16.95;7.97;;;;;;;-1.86;100.00;98394.19;5043558;28;20044;-63
2023/11/23 00:44:51;;;;;;;13.93;8.55;;;;;;;-1.93;100.00;98390.44;5040980;28;20052;-63
2023/11/23 00:47:20;;;;;;;17.00;8.40;;;;;;;-1.98;100.00;98393.53;5039846;28;20048;-62
2023/11/23 00:49:46;;;;;;;13.15;7.82;;;;;;;-1.89;100.00;98390.97;5037549;28;20103;-63
2023/11/23 00:52:13;;;;;;;13.32;7.95;;;;;;;-1.79;100.00;98390.94;5047785;28;20105;-62
2023/11/23 00:54:39;;;;;;;13.48;8.07;;;;;;;-1.86;100.00;98385.38;5027138;28;20042;-63
2023/11/23 00:57:06;;;;;;;12.18;7.75;;;;;;;-1.78;100.00;98379.31;5049868;28;20118;-63
2023/11/23 00:59:34;;;;;;;13.90;8.52;;;;;;;-1.90;100.00;98368.91;5035891;28;20470;-62
2023/11/23 01:02:01;;;;;;;13.65;8.10;;;;;;;-1.79;100.00;98375.00;5037417;28;20041;-63
2023/11/23 01:04:29;;;;;;;16.02;8.77;;;;;;;-1.72;100.00;98384.91;5041244;28;20044;-63
2023/11/23 01:06:55;;;;;;;16.60;7.95;;;;;;;-1.64;100.00;98386.81;5041408;28;20034;-63
2023/11/23 01:09:23;;;;;;;14.93;8.32;;;;;;;-1.66;100.00;98383.47;5041398;28;20055;-63
2023/11/23 01:11:51;;;;;;;17.05;8.85;;;;;;;-1.59;100.00;98378.38;5037941;28;20120;-62
2023/11/23 01:14:18;;;;;;;12.52;7.28;;;;;;;-1.55;100.00;98384.25;5033288;28;20063;-62
2023/11/23 01:16:45;;;;;;;13.68;8.32;;;;;;;-1.53;100.00;98388.44;5033551;28;20090;-62
2023/11/23 01:19:13;;;;;;;15.85;8.40;;;;;;;-1.69;100.00;98381.13;5039678;28;20066;-62
2023/11/23 01:21:39;;;;;;;13.45;7.45;;;;;;;-1.68;100.00;98388.09;5045583;28;20043;-62
2023/11/23 01:24:08;;;;;;;14.88;7.70;;;;;;;-1.55;100.00;98389.56;5038134;28;20047;-63
2023/11/23 01:26:35;;;;;;;16.73;8.73;;;;;;;-1.35;100.00;98404.41;5033569;28;20064;-62
2023/11/23 01:29:02;;;;;;;13.60;8.07;;;;;;;-1.39;100.00;98388.91;5043592;28;20056;-62
2023/11/23 01:31:29;;;;;;;13.75;7.55;;;;;;;-1.53;100.00;98391.09;5041695;28;20033;-62
2023/11/23 01:33:55;;;;;;;14.00;7.57;;;;;;;-1.52;100.00;98379.47;5040296;28;20126;-63
2023/11/23 01:36:23;;;;;;;12.00;7.70;;;;;;;-1.57;100.00;98363.16;5030810;28;20048;-63
2023/11/23 01:38:49;;;;;;;17.65;9.38;;;;;;;-1.54;100.00;98381.44;5035707;28;20512;-62
2023/11/23 01:41:16;;;;;;;19.02;8.40;;;;;;;-1.31;100.00;98371.25;5033410;28;20047;-62
2023/11/23 01:43:46;;;;;;;14.60;7.85;;;;;;;-1.69;100.00;98362.53;5032359;28;20047;-62
2023/11/23 01:46:13;;;;;;;11.85;7.07;;;;;;;-1.79;100.00;98357.28;5035308;28;20489;-63
2023/11/23 01:48:42;;;;;;;12.45;7.05;;;;;;;-1.82;100.00;98352.25;5039526;28;20037;-62
2023/11/23 01:51:12;;;;;;;14.35;7.43;;;;;;;-1.83;100.00;98350.56;5047050;28;20076;-62
2023/11/23 01:53:40;;;;;;;15.60;8.73;;;;;;;-1.78;100.00;98347.47;5040299;28;20040;-63
2023/11/23 01:56:10;;;;;;;14.00;7.57;;;;;;;-1.72;100.00;98353.03;5035924;28;20041;-63
2023/11/23 01:58:37;;;;;;;15.10;9.07;;;;;;;-1.51;100.00;98351.09;5043500;28;20036;-62
2023/11/23 02:01:04;;;;;;;15.07;8.57;;;;;;;-1.72;100.00;98336.25;5039502;28;20044;-62
2023/11/23 02:03:30;;;;;;;13.02;8.02;;;;;;;-1.57;100.00;98336.59;5045433;28;20598;-63
2023/11/23 02:05:58;;;;;;;13.93;8.18;;;;;;;-1.61;100.00;98329.91;5038665;28;20107;-64
2023/11/23 02:08:24;;;;;;;14.82;8.32;;;;;;;-1.78;100.00;98319.09;5046996;28;20079;-62
2023/11/23 02:10:51;;;;;;;14.93;7.63;;;;;;;-1.91;100.00;98321.28;5039777;28;20045;-63
2023/11/23 02:13:18;;;;;;;16.00;8.40;;;;;;;-1.79;100.00;98327.22;5040341;28;20528;-62
2023/11/23 02:15:44;;;;;;;13.18;7.63;;;;;;;-1.77;100.00;98327.91;5039606;28;20088;-63
2023/11/23 02:18:11;;;;;;;13.60;7.78;;;;;;;-2.02;100.00;98317.84;5044214;28;20608;-64
2023/11/23 02:20:38;;;;;;;13.73;7.57;;;;;;;-1.75;100.00;98320.63;5031208;28;20048;-63
2023/11/23 02:23:05;;;;;;;15.30;8.52;;;;;;;-1.56;100.00;98314.34;5039921;28;20040;-62
2023/11/23 02:25:32;;;;;;;14.07;7.43;;;;;;;-1.60;100.00;98313.81;5054227;28;20055;-62
2023/11/23 02:27:58;;;;;;;16.25;8.45;;;;;;;-1.49;100.00;98309.25;5042525;28;20053;-62
2023/11/23 02:30:25;;;;;;;13.30;6.80;;;;;;;-1.57;100.00;98302.06;5040956;28;20115;-62
2023/11/23 02:32:53;;;;;;;13.82;7.10;;;;;;;-1.44;100.00;98296.34;5039634;28;20123;-64
2023/11/23 02:35:20;;;;;;;10.20;6.75;;;;;;;-1.50;100.00;98294.31;5042769;28;20415;-63
2023/11/23 02:37:47;;;;;;;14.07;7.65;;;;;;;-1.57;100.00;98289.63;5040824;28;20041;-63
2023/11/23 02:40:14;;;;;;;13.77;7.97;;;;;;;-1.60;100.00;98295.22;5039260;28;20551;-64
2023/11/23 02:42:41;;;;;;;12.48;7.55;;;;;;;-1.67;100.00;98290.69;5052233;28;20256;-63
2023/11/23 02:45:12;;;;;;;11.20;7.20;;;;;;;-1.64;100.00;98295.66;5032037;28;20038;-62
2023/11/23 02:47:38;;;;;;;14.00;7.75;;;;;;;-1.60;100.00;98302.34;5041204;28;20049;-63
2023/11/23 02:50:05;;;;;;;14.02;7.35;;;;;;;-1.58;100.00;98292.44;5042990;28;20029;-62
2023/11/23 02:52:32;;;;;;;13.55;6.18;;;;;;;-1.61;100.00;98295.38;5034149;28;20076;-64
2023/11/23 02:54:58;;;;;;;14.25;6.80;;;;;;;-1.57;100.00;98299.41;5041418;28;20040;-63
2023/11/23 02:57:25;;;;;;;13.85;7.15;;;;;;;-1.41;100.00;98300.56;5034871;28;20061;-63
2023/11/23 02:59:52;;;;;;;13.95;7.07;;;;;;;-1.45;100.00;98308.81;5035443;28;20041;-62
2023/11/23 03:02:18;;;;;;;13.02;7.15;;;;;;;-1.44;100.00;98313.13;5046734;28;20609;-63
2023/11/23 03:04:45;;;;;;;10.18;5.93;;;;;;;-1.37;100.00;98309.91;5038489;28;20036;-63
2023/11/23 03:07:12;;;;;;;11.77;6.90;;;;;;;-1.54;100.00;98303.56;5035144;28;20052;-62
2023/11/23 03:09:38;;;;;;;11.55;6.57;;;;;;;-1.40;100.00;98299.56;5046356;28;20048;-62
2023/11/23 03:12:05;;;;;;;13.50;6.53;;;;;;;-1.51;100.00;98309.41;5050909;28;20040;-62
2023/11/23 03:14:34;;;;;;;12.27;6.25;;;;;;;-1.61;100.00;98313.97;5038360;28;20301;-62
2023/11/23 03:17:02;;;;;;;13.48;7.22;;;;;;;-1.53;100.00;98315.88;5033860;28;20045;-63
2023/11/23 03:19:29;;;;;;;12.38;6.22;;;;;;;-1.40;100.00;98312.84;5036829;28;20094;-62
2023/11/23 03:21:57;;;;;;;12.70;6.63;;;;;;;-1.32;100.00;98313.75;5039138;28;20045;-62
2023/11/23 03:24:24;;;;;;;11.95;6.28;;;;;;;-1.49;100.00;98312.75;5035567;28;20057;-62
2023/11/23 03:26:51;;;;;;;12.35;6.72;;;;;;;-1.51;100.00;98306.75;5031203;28;20041;-62
2023/11/23 03:29:17;;;;;;;11.52;6.63;;;;;;;-1.52;100.00;98298.97;5029305;28;20547;-62
2023/11/23 03:31:45;;;;;;;11.05;6.13;;;;;;;-1.36;100.00;98298.28;5036049;28;20073;-62
2023/11/23 03:34:12;;;;;;;11.30;6.35;;;;;;;-1.33;100.00;98303.28;5027790;28;20128;-62
2023/11/23 03:36:38;;;;;;;11.60;6.55;;;;;;;-1.49;100.00;98306.59;5036476;28;20128;-62
2023/11/23 03:39:06;;;;;;;11.88;6.03;;;;;;;-1.48;100.00;98314.44;5033099;28;20044;-62
2023/11/23 03:41:34;;;;;;;13.40;6.43;;;;;;;-1.63;100.00;98322.09;5031047;28;20042;-62
2023/11/23 03:44:01;;;;;;;14.65;6.78;;;;;;;-1.58;100.00;98311.84;5030585;28;20072;-62
2023/11/23 03:46:27;;;;;;;14.07;7.32;;;;;;;-1.60;100.00;98319.13;5035280;28;20492;-62
2023/11/23 03:48:54;;;;;;;14.43;7.05;;;;;;;-1.51;100.00;98311.25;5033760;28;20336;-62
2023/11/23 03:51:21;;;;;;;15.82;6.85;;;;;;;-1.54;100.00;98301.75;5029726;28;20398;-63
2023/11/23 03:53:47;;;;;;;12.20;6.07;;;;;;;-1.54;100.00;98303.56;5029557;28;20045;-63
2023/11/23 03:56:18;;;;;;;13.57;7.05;;;;;;;-1.68;100.00;98299.63;5034199;28;20073;-62
2023/11/23 03:58:45;;;;;;;12.07;6.97;;;;;;;-1.69;100.00;98301.44;5034927;28;20064;-62
2023/11/23 04:01:11;;;;;;;11.68;5.53;;;;;;;-1.70;100.00;98294.44;5031078;28;20820;-63
2023/11/23 04:03:44;;;;;;;13.13;6.53;;;;;;;-1.83;100.00;98294.81;5034888;28;20053;-62
2023/11/23 04:06:11;;;;;;;16.58;6.63;;;;;;;-1.83;100.00;98290.34;5039656;28;20413;-62
2023/11/23 04:08:40;;;;;;;12.13;7.18;;;;;;;-1.79;100.00;98292.69;5029046;28;20037;-62
2023/11/23 04:11:09;;;;;;;16.15;7.60;;;;;;;-1.68;100.00;98292.50;5030927;28;20717;-62
2023/11/23 04:13:36;;;;;;;13.55;7.05;;;;;;;-1.70;100.00;98295.28;5032363;28;20052;-62
2023/11/23 04:16:03;;;;;;;12.55;6.90;;;;;;;-1.66;100.00;98292.34;5031886;28;20056;-62
2023/11/23 04:18:29;;;;;;;11.20;6.15;;;;;;;-1.69;100.00;98288.19;5040577;28;20045;-63
2023/11/23 04:20:56;;;;;;;13.10;6.53;;;;;;;-1.76;100.00;98284.44;5043054;28;20120;-63
2023/11/23 04:23:23;;;;;;;11.60;6.55;;;;;;;-1.79;100.00;98282.91;5049457;28;20044;-62
2023/11/23 04:25:50;;;;;;;12.77;6.40;;;;;;;-1.71;100.00;98290.97;5040473;28;20112;-63
2023/11/23 04:28:16;;;;;;;13.85;6.43;;;;;;;-1.72;100.00;98291.13;5040754;28;20041;-63
2023/11/23 04:30:43;;;;;;;12.77;6.82;;;;;;;-1.65;100.00;98296.66;5046467;28;20068;-62
2023/11/23 04:33:10;;;;;;;13.90;6.97;;;;;;;-1.70;100.00;98297.94;5033222;28;20045;-64
2023/11/23 04:35:36;;;;;;;14.48;6.57;;;;;;;-1.79;100.00;98298.84;5048527;28;20509;-63
2023/11/23 04:38:03;;;;;;;12.10;7.25;;;;;;;-1.77;100.00;98302.19;5033208;28;20048;-63
2023/11/23 04:40:30;;;;;;;13.55;6.95;;;;;;;-1.69;100.00;98304.09;5034012;28;20053;-63
2023/11/23 04:42:56;;;;;;;12.43;6.97;;;;;;;-1.62;100.00;98299.84;5032978;28;20480;-63
2023/11/23 04:45:23;;;;;;;11.82;6.72;;;;;;;-1.65;100.00;98294.84;5038687;28;20666;-63
2023/11/23 04:47:49;;;;;;;14.52;6.97;;;;;;;-1.75;100.00;98302.88;5038292;28;20037;-63
2023/11/23 04:50:16;;;;;;;13.48;7.10;;;;;;;-1.78;100.00;98295.22;5036384;28;20044;-63
2023/11/23 04:52:47;;;;;;;11.95;7.85;;;;;;;-1.79;100.00;98295.34;5038145;28;20032;-62
2023/11/23 04:55:14;;;;;;;16.30;7.95;;;;;;;-1.69;100.00;98290.81;5039225;28;20101;-62
2023/11/23 04:57:40;;;;;;;13.57;7.60;;;;;;;-1.76;100.00;98295.91;5035061;28;20040;-63
2023/11/23 05:00:10;;;;;;;16.33;7.80;;;;;;;-1.70;100.00;98284.66;5038956;28;20095;-62
2023/11/23 05:02:37;;;;;;;14.73;7.15;;;;;;;-1.70;100.00;98289.97;5035063;28;20067;-62
2023/11/23 05:05:04;;;;;;;13.80;7.35;;;;;;;-1.72;100.00;98283.16;5033115;28;20044;-62
2023/11/23 05:07:30;;;;;;;13.75;6.93;;;;;;;-1.65;100.00;98286.88;5035273;28;20044;-62
2023/11/23 05:09:57;;;;;;;11.93;6.45;;;;;;;-1.64;100.00;98277.94;5035581;28;20400;-62
2023/11/23 05:12:23;;;;;;;12.75;7.00;;;;;;;-1.75;100.00;98273.66;5033745;28;20797;-62
2023/11/23 05:14:50;;;;;;;13.07;6.63;;;;;;;-1.80;100.00;98275.09;5037497;28;20045;-62
2023/11/23 05:17:16;;;;;;;12.98;8.35;;;;;;;-1.83;100.00;98277.06;5037970;28;20045;-61
2023/11/23 05:19:43;;;;;;;12.65;6.88;;;;;;;-1.69;100.00;98274.91;5043752;28;20069;-62
2023/11/23 05:22:09;;;;;;;10.77;6.35;;;;;;;-1.68;100.00;98271.25;5036197;28;20489;-63
2023/11/23 05:24:36;;;;;;;10.63;6.07;;;;;;;-1.67;100.00;98277.41;5042581;28;20044;-62
2023/11/23 05:27:03;;;;;;;17.42;7.05;;;;;;;-1.72;100.00;98278.69;5033289;28;20112;-62
2023/11/23 05:29:29;;;;;;;10.90;5.68;;;;;;;-1.65;100.00;98280.72;5029577;28;20045;-62
2023/11/23 05:31:56;;;;;;;14.32;6.35;;;;;;;-1.65;100.00;98268.28;5027666;28;20049;-62
2023/11/23 05:34:22;;;;;;;12.13;6.55;;;;;;;-1.66;100.00;98279.88;5036663;28;20045;-63
2023/11/23 05:36:49;;;;;;;10.73;5.38;;;;;;;-1.57;100.00;98278.16;5028943;28;20065;-63
2023/11/23 05:39:15;;;;;;;11.20;6.15;;;;;;;-1.67;100.00;98288.84;5039365;28;20037;-62
2023/11/23 05:41:42;;;;;;;8.88;4.93;;;;;;;-1.78;100.00;98295.22;5036084;28;20132;-63
2023/11/23 05:44:09;;;;;;;10.30;5.18;;;;;;;-1.83;100.00;98295.63;5034240;28;20535;-62
2023/11/23 05:46:36;;;;;;;9.95;4.72;;;;;;;-1.70;100.00;98297.09;5039157;28;20049;-62
2023/11/23 05:49:03;;;;;;;10.35;5.78;;;;;;;-1.75;100.00;98289.59;5034905;28;20409;-63
2023/11/23 05:51:29;;;;;;;10.93;5.53;;;;;;;-1.92;100.00;98290.41;5033188;28;20037;-62
2023/11/23 05:53:56;;;;;;;11.07;5.63;;;;;;;-2.07;100.00;98290.91;5039729;28;20121;-62
2023/11/23 05:56:22;;;;;;;10.60;6.43;;;;;;;-2.15;100.00;98290.81;5029643;28;20045;-63
2023/11/23 05:58:49;;;;;;;11.02;6.88;;;;;;;-2.25;100.00;98293.53;5041733;28;20045;-63
2023/11/23 06:01:16;;;;;;;11.38;6.15;;;;;;;-2.20;100.00;98291.25;5044488;28;20041;-62
2023/11/23 06:03:42;;;;;;;12.38;6.28;;;;;;;-2.14;100.00;98289.84;5032766;28;20048;-63
2023/11/23 06:06:21;;;;;;;10.60;5.75;;;;;;;-2.04;100.00;98284.47;5037073;28;20038;-62
2023/11/23 06:08:49;;;;;;;11.95;5.85;;;;;;;-2.01;100.00;98290.31;5027075;28;20483;-62
2023/11/23 06:11:17;;;;;;;12.20;6.22;;;;;;;-1.98;100.00;98290.00;5039270;28;20103;-63
2023/11/23 06:13:45;;;;;;;10.07;5.47;;;;;;;-1.90;100.00;98289.28;5044147;28;20221;-63
2023/11/23 06:16:13;;;;;;;11.50;5.40;;;;;;;-1.91;100.00;98295.59;5033109;28;20681;-63
2023/11/23 06:18:40;;;;;;;11.57;6.30;;;;;;;-1.95;100.00;98291.56;5037613;28;20121;-62
2023/11/23 06:21:08;;;;;;;9.80;6.03;;;;;;;-1.97;100.00;98285.53;5040393;28;20041;-62
2023/11/23 06:23:34;;;;;;;10.13;5.55;;;;;;;-1.78;100.00;98297.88;5038847;28;20076;-62
2023/11/23 06:26:01;;;;;;;9.80;5.05;;;;;;;-1.71;100.00;98293.63;5032674;28;20121;-62
2023/11/23 06:28:28;;;;;;;13.63;5.75;;;;;;;-1.70;100.00;98286.47;5039213;28;20048;-62
2023/11/23 06:30:55;;;;;;;8.45;4.93;;;;;;;-1.59;100.00;98296.03;5027456;28;20040;-63
2023/11/23 06:33:22;;;;;;;10.52;5.03;;;;;;;-1.51;100.00;98293.47;5036047;28;20120;-63
2023/11/23 06:35:50;;;;;;;8.93;4.75;;;;;;;-1.43;100.00;98295.38;5038205;28;20072;-62
2023/11/23 06:38:17;;;;;;;8.32;4.45;;;;;;;-1.41;100.00;98290.75;5047970;28;20048;-63
2023/11/23 06:40:44;;;;;;;10.50;5.53;;;;;;;-1.40;100.00;98304.88;5038902;28;20052;-62
2023/11/23 06:43:11;;;;;;;10.32;4.68;;;;;;;-1.33;100.00;98305.94;5041021;28;20041;-63
2023/11/23 06:45:38;;;;;;;9.10;5.20;;;;;;;-1.44;100.00;98305.16;5035426;28;20045;-62
2023/11/23 06:48:05;;;;;;;8.50;4.30;;;;;;;-1.32;100.00;98302.28;5030935;28;20076;-62
2023/11/23 06:50:32;;;;;;;7.90;4.10;;;;;;;-1.43;100.00;98284.75;5042832;28;20577;-63
2023/11/23 06:52:59;;;;;;;7.65;4.10;;;;;;;-1.37;100.00;98291.28;5034008;28;20050;-63
2023/11/23 06:55:26;;;;;;;9.45;4.90;;;;;;;-1.32;100.00;98296.97;5034456;28;20037;-62
2023/11/23 06:57:52;;;;;;;8.82;4.05;;;;;;;-1.26;100.00;98293.69;5033364;28;20041;-63
2023/11/23 07:00:22;;;;;;;7.97;4.38;;;;;;;-1.34;100.00;98281.19;5034394;28;20433;-62
2023/11/23 07:02:50;;;;;;;9.73;4.32;;;;;;;-1.33;100.00;98285.50;5044075;28;20879;-62
2023/11/23 07:05:19;;;;;;;9.15;4.55;;;;;;;-1.31;100.00;98274.72;5034024;28;20036;-63
2023/11/23 07:07:47;;;;;;;7.45;4.18;;;;;;;-1.18;100.00;98288.44;5032230;28;20045;-62
2023/11/23 07:10:14;;;;;;;9.10;4.55;;;;;;;-1.01;100.00;98275.28;5044584;28;20047;-62
2023/11/23 07:12:46;;;;;;;8.30;3.88;;;;;;;-0.94;100.00;98262.22;5035067;28;20698;-63
2023/11/23 07:15:14;;;;;;;7.40;3.95;;;;;;;-0.94;100.00;98268.38;5034854;28;20040;-63
2023/11/23 07:17:41;;;;;;;7.72;3.97;;;;;;;-0.86;100.00;98264.06;5039760;28;20057;-63
2023/11/23 07:20:12;;;;;;;8.85;4.13;;;;;;;-0.93;100.00;98269.19;5041396;28;20061;-63
2023/11/23 07:22:39;;;;;;;8.93;4.72;;;;;;;-0.99;100.00;98267.97;5036514;28;20052;-63
2023/11/23 07:25:09;;;;;;;8.95;4.88;;;;;;;-1.01;100.00;98267.31;5045871;28;20041;-63
2023/11/23 07:27:37;;;;;;;7.03;4.10;;;;;;;-1.02;100.00;98268.31;5035435;28;20046;-63
2023/11/23 07:30:08;;;;;;;7.57;4.20;;;;;;;-1.03;100.00;98265.81;5038968;28;20037;-62
2023/11/23 07:32:35;;;;;;;9.25;5.13;;;;;;;-0.98;100.00;98261.69;5038026;28;20111;-63
2023/11/23 07:35:03;;;;;;;15.70;5.05;;;;;;;-0.87;100.00;98265.94;5032880;28;20041;-64
2023/11/23 07:37:31;;;;;;;8.82;5.22;;;;;;;-0.77;100.00;98264.97;5036219;28;20037;-63
2023/11/23 07:39:57;;;;;;;9.20;4.68;;;;;;;-0.71;100.00;98269.66;5046475;28;20045;-62
2023/11/23 07:42:25;;;;;;;7.40;4.45;;;;;;;-0.55;100.00;98277.72;5043642;28;20100;-62
2023/11/23 07:44:52;;;;;;;9.48;4.20;;;;;;;-0.49;100.00;98273.63;5031404;28;21258;-62
2023/11/23 07:47:19;;;;;;;8.07;4.00;;;;;;;-0.37;100.00;98273.34;5042551;28;20049;-61
2023/11/23 07:49:46;;;;;;;8.50;5.15;;;;;;;-0.34;100.00;98273.84;5037106;28;20068;-62
2023/11/23 07:52:13;;;;;;;9.48;5.18;;;;;;;-0.30;100.00;98271.69;5040214;28;20045;-63
2023/11/23 07:54:40;;;;;;;8.07;4.10;;;;;;;-0.30;100.00;98279.69;5037957;28;20041;-63
2023/11/23 07:57:07;;;;;;;9.05;3.95;;;;;;;-0.16;100.00;98272.91;5038663;28;20041;-69
2023/11/23 07:59:36;;;;;;;8.73;4.60;;;;;;;-0.08;100.00;98274.81;5044709;28;20545;-61
2023/11/23 08:02:04;;;;;;;7.40;3.88;;;;;;;-0.14;100.00;98277.09;5030773;28;20066;-61
2023/11/23 08:04:31;;;;;;;9.68;4.30;;;;;;;-0.11;100.00;98267.94;5030536;28;20044;-60
2023/11/23 08:06:58;;;;;;;8.30;4.20;;;;;;;0.03;100.00;98269.16;5027224;28;20045;-60
2023/11/23 08:09:26;;;;;;;8.75;4.40;;;;;;;0.09;100.00;98276.53;5034976;28;20521;-60
2023/11/23 08:11:52;;;;;;;7.75;4.65;;;;;;;0.07;100.00;98273.16;5032519;28;20047;-60
2023/11/23 08:14:20;;;;;;;8.38;5.00;;;;;;;0.14;100.00;98265.34;5032310;28;20041;-60
2023/11/23 08:16:47;;;;;;;6.93;4.00;;;;;;;0.25;100.00;98282.88;5032718;28;20454;-61
2023/11/23 08:19:16;;;;;;;7.80;4.78;;;;;;;0.35;100.00;98283.56;5035283;28;20037;-62
2023/11/23 08:21:43;;;;;;;11.05;5.32;;;;;;;0.53;100.00;98282.59;5031954;28;20123;-61
2023/11/23 08:24:12;;;;;;;7.85;4.43;;;;;;;0.63;100.00;98279.78;5036730;28;20037;-63
2023/11/23 08:26:38;;;;;;;10.48;4.65;;;;;;;0.72;100.00;98288.59;5032971;28;20076;-62
2023/11/23 08:29:05;;;;;;;9.25;4.75;;;;;;;0.83;100.00;98284.78;5040381;28;20055;-62
2023/11/23 08:31:32;;;;;;;7.40;3.65;;;;;;;0.98;100.00;98280.44;5039663;28;20717;-62
2023/11/23 08:33:59;;;;;;;9.75;4.55;;;;;;;1.04;100.00;98263.75;5032062;28;20065;-61
2023/11/23 08:36:25;;;;;;;9.10;4.25;;;;;;;1.04;100.00;98262.94;5037117;28;20139;-61
2023/11/23 08:38:52;;;;;;;7.68;4.13;;;;;;;1.25;100.00;98249.06;5035909;28;20041;-62
2023/11/23 08:41:18;;;;;;;7.88;3.90;;;;;;;1.45;100.00;98259.34;5035368;28;20048;-59
2023/11/23 08:43:48;;;;;;;8.02;4.32;;;;;;;1.51;100.00;98256.00;5032899;28;20065;-60
2023/11/23 08:46:15;;;;;;;7.15;4.07;;;;;;;1.58;100.00;98247.31;5038818;28;20057;-60
2023/11/23 08:48:41;;;;;;;9.50;4.25;;;;;;;1.66;100.00;98250.78;5034613;28;20120;-61
2023/11/23 08:51:08;;;;;;;8.20;3.90;;;;;;;1.67;100.00;98249.75;5035140;28;20129;-61
2023/11/23 08:53:34;;;;;;;6.90;3.88;;;;;;;1.65;100.00;98248.28;5044015;28;20692;-60
2023/11/23 08:56:01;;;;;;;8.20;4.20;;;;;;;1.66;100.00;98241.94;5033607;28;20539;-60
2023/11/23 08:58:28;;;;;;;10.43;5.07;;;;;;;1.76;100.00;98239.88;5035338;28;20036;-62
2023/11/23 09:00:54;;;;;;;7.18;3.70;;;;;;;1.88;100.00;98234.97;5037125;28;20049;-62
2023/11/23 09:03:21;;;;;;;6.93;3.50;;;;;;;1.88;100.00;98232.31;5029352;28;20052;-60
2023/11/23 09:05:47;;;;;;;6.53;3.72;;;;;;;1.91;100.00;98237.31;5035024;28;20060;-62
2023/11/23 09:08:14;;;;;;;7.15;3.90;;;;;;;1.88;100.00;98237.66;5030465;28;20409;-63
2023/11/23 09:10:42;;;;;;;7.97;3.85;;;;;;;1.97;100.00;98235.78;5042175;28;20048;-60
2023/11/23 09:13:09;;;;;;;7.25;4.00;;;;;;;1.93;100.00;98240.66;5042411;28;20560;-61
2023/11/23 09:15:36;;;;;;;8.25;3.85;;;;;;;2.12;100.00;98241.22;5045001;28;20052;-60
2023/11/23 09:18:03;;;;;;;9.05;3.83;;;;;;;2.06;100.00;98241.91;5038943;28;20117;-59
2023/11/23 09:20:30;;;;;;;8.60;3.97;;;;;;;1.99;100.00;98231.09;5032817;28;20048;-61
2023/11/23 09:22:56;;;;;;;8.15;3.40;;;;;;;2.06;100.00;98231.22;5046137;28;20036;-61
2023/11/23 09:25:24;;;;;;;6.13;3.80;;;;;;;1.96;100.00;98226.13;5035311;28;20053;-62
2023/11/23 09:27:50;;;;;;;6.90;3.85;;;;;;;2.03;100.00;98220.91;5037028;28;20123;-61
2023/11/23 09:30:17;;;;;;;7.15;3.72;;;;;;;2.13;100.00;98223.34;5043096;28;20496;-61
2023/11/23 09:32:43;;;;;;;6.63;3.75;;;;;;;2.20;100.00;98225.13;5041783;28;20042;-60
2023/11/23 09:35:10;;;;;;;7.40;3.45;;;;;;;2.23;100.00;98223.94;5031812;28;20116;-60
2023/11/23 09:37:37;;;;;;;5.65;3.22;;;;;;;2.34;100.00;98218.22;5044300;28;20124;-61
2023/11/23 09:40:09;;;;;;;9.02;4.18;;;;;;;2.38;100.00;98215.16;5040348;28;20045;-61
2023/11/23 09:42:38;;;;;;;6.80;3.42;;;;;;;2.45;100.00;98205.41;5039936;28;20049;-60
2023/11/23 09:45:07;;;;;;;6.05;3.05;;;;;;;2.56;100.00;98201.50;5034196;28;20065;-62
2023/11/23 09:47:35;;;;;;;4.80;2.90;;;;;;;2.62;100.00;98203.47;5038096;28;20094;-62
2023/11/23 09:50:03;;;;;;;6.00;3.13;;;;;;;2.57;100.00;98211.16;5034503;28;20175;-61
2023/11/23 09:52:35;;;;;;;5.25;2.88;;;;;;;2.62;100.00;98192.78;5031618;28;20045;-60
2023/11/23 09:55:04;;;;;;;7.78;3.40;;;;;;;2.64;100.00;98198.75;5035475;28;20045;-61
2023/11/23 09:57:30;;;;;;;5.25;2.78;;;;;;;2.68;100.00;98184.00;5032126;28;20044;-61
2023/11/23 09:59:57;;;;;;;5.85;3.05;;;;;;;2.73;100.00;98180.81;5035374;28;20449;-62
2023/11/23 10:02:23;;;;;;;7.95;2.67;;;;;;;2.82;100.00;98170.84;5037305;28;20049;-62
2023/11/23 10:04:52;;;;;;;5.60;2.40;;;;;;;2.89;100.00;98179.81;5034556;28;20032;-61
2023/11/23 10:07:20;;;;;;;5.20;2.63;;;;;;;3.10;100.00;98173.72;5031602;28;20693;-62
2023/11/23 10:09:48;;;;;;;6.13;2.42;;;;;;;3.04;100.00;98173.63;5043063;28;20120;-61
2023/11/23 10:12:14;;;;;;;6.97;3.10;;;;;;;2.97;100.00;98169.03;5045682;28;20446;-60
2023/11/23 10:14:41;;;;;;;5.40;2.60;;;;;;;2.97;100.00;98166.34;5040478;28;20610;-62
2023/11/23 10:17:07;;;;;;;6.60;3.20;;;;;;;3.01;100.00;98156.09;5043596;28;20045;-62
2023/11/23 10:19:34;;;;;;;5.53;3.33;;;;;;;2.92;100.00;98147.34;5037053;28;20120;-60
2023/11/23 10:22:03;;;;;;;5.97;2.90;;;;;;;2.95;100.00;98141.63;5041070;28;20045;-61
2023/11/23 10:24:30;;;;;;;5.15;2.97;;;;;;;3.02;100.00;98141.72;5043207;28;20045;-62
2023/11/23 10:26:57;;;;;;;6.25;3.17;;;;;;;3.13;100.00;98137.75;5039338;28;20125;-59
2023/11/23 10:29:28;;;;;;;4.15;2.22;;;;;;;3.23;100.00;98148.16;5041429;28;20670;-62
2023/11/23 10:31:59;;;;;;;5.20;2.72;;;;;;;3.32;100.00;98141.69;5036167;28;20531;-61
2023/11/23 10:34:29;;;;;;;5.32;2.63;;;;;;;3.53;100.00;98141.97;5038636;28;20492;-61
2023/11/23 10:36:57;;;;;;;6.40;2.97;;;;;;;3.56;100.00;98141.56;5030121;28;20049;-61
2023/11/23 10:39:27;;;;;;;5.95;2.60;;;;;;;3.60;100.00;98142.88;5040177;28;20868;-61
2023/11/23 10:41:54;;;;;;;4.18;2.28;;;;;;;3.79;100.00;98133.41;5041206;28;20067;-61
2023/11/23 10:44:22;;;;;;;4.57;1.95;;;;;;;3.89;100.00;98130.41;5044322;28;20098;-61
2023/11/23 10:46:53;;;;;;;4.22;1.95;;;;;;;3.94;100.00;98130.66;5037321;28;20095;-61
2023/11/23 10:49:20;;;;;;;4.22;2.30;;;;;;;3.94;100.00;98132.53;5040617;28;20496;-62
2023/11/23 10:51:46;;;;;;;4.35;1.83;;;;;;;4.11;100.00;98128.59;5032015;28;20049;-61
2023/11/23 10:54:13;;;;;;;3.70;1.88;;;;;;;4.19;100.00;98127.63;5038472;28;20128;-60
2023/11/23 10:56:43;;;;;;;4.85;1.90;;;;;;;4.26;100.00;98119.63;5030171;28;20508;-62
2023/11/23 10:59:17;;;;;;;5.88;2.53;;;;;;;4.14;100.00;98111.28;5035793;28;20036;-61
2023/11/23 11:01:45;;;;;;;4.75;2.15;;;;;;;4.16;100.00;98101.19;5031726;28;20052;-61
2023/11/23 11:04:12;;;;;;;4.95;2.08;;;;;;;4.13;100.00;98104.28;5034615;28;20045;-62
2023/11/23 11:06:40;;;;;;;5.80;2.33;;;;;;;4.35;100.00;98094.34;5037851;28;20048;-60
2023/11/23 11:09:16;;;;;;;5.93;2.28;;;;;;;4.37;100.00;98088.78;5030781;28;20053;-63
2023/11/23 11:11:45;;;;;;;3.80;2.00;;;;;;;4.42;100.00;98091.72;5039499;28;20786;-61
2023/11/23 11:14:16;;;;;;;4.03;1.88;;;;;;;4.64;100.00;98083.66;5030045;28;20554;-60
2023/11/23 11:16:43;;;;;;;4.65;2.20;;;;;;;4.69;100.00;98081.19;5045114;28;20044;-62
2023/11/23 11:19:11;;;;;;;3.85;2.03;;;;;;;4.59;100.00;98080.69;5036967;28;20045;-61
2023/11/23 11:21:46;;;;;;;4.63;2.10;;;;;;;4.75;100.00;98085.75;5034228;28;20049;-62